createdAt,value
2022-09-10T00:00:45.600Z,14.87
2022-09-10T00:01:47.002Z,14.89
2022-09-10T00:02:48.436Z,14.89
2022-09-10T00:03:49.909Z,14.92
2022-09-10T00:04:51.330Z,14.93
2022-09-10T00:05:53.058Z,14.96
2022-09-10T00:06:54.740Z,14.88
2022-09-10T00:07:56.313Z,14.85
2022-09-10T00:08:58.509Z,14.83
2022-09-10T00:09:59.913Z,14.86
2022-09-10T00:11:04.693Z,14.83
2022-09-10T00:12:06.197Z,14.81
2022-09-10T00:13:08.419Z,14.81
2022-09-10T00:14:12.665Z,14.82
2022-09-10T00:15:17.157Z,14.82
2022-09-10T00:16:19.139Z,14.83
2022-09-10T00:17:20.523Z,14.88
2022-09-10T00:18:24.677Z,14.86
2022-09-10T00:19:26.017Z,14.83
2022-09-10T00:20:27.342Z,14.81
2022-09-10T00:21:29.563Z,14.82
2022-09-10T00:22:30.858Z,14.81
2022-09-10T00:23:34.890Z,14.82
2022-09-10T00:24:36.234Z,14.83
2022-09-10T00:25:37.609Z,14.79
2022-09-10T00:26:39.081Z,14.79
2022-09-10T00:27:43.418Z,14.80
2022-09-10T00:28:45.201Z,14.87
2022-09-10T00:29:47.179Z,14.91
2022-09-10T00:30:49.935Z,14.90
2022-09-10T00:31:58.972Z,14.90
2022-09-10T00:33:02.239Z,14.89
2022-09-10T00:34:04.193Z,14.90
2022-09-10T00:35:06.071Z,14.91
2022-09-10T00:36:17.828Z,14.92
2022-09-10T00:37:19.233Z,14.91
2022-09-10T00:38:20.862Z,14.90
2022-09-10T00:39:22.285Z,14.88
2022-09-10T00:40:28.159Z,14.90
2022-09-10T00:41:29.773Z,14.95
2022-09-10T00:42:31.405Z,14.95
2022-09-10T00:43:55.266Z,14.95
2022-09-10T00:44:58.177Z,14.98
2022-09-10T00:45:59.626Z,14.99
2022-09-10T00:47:00.998Z,14.97
2022-09-10T00:48:05.014Z,14.98
2022-09-10T00:49:12.332Z,14.96
2022-09-10T00:50:20.379Z,14.96
2022-09-10T00:51:22.354Z,14.97
2022-09-10T00:52:24.334Z,14.98
2022-09-10T00:53:29.408Z,14.96
2022-09-10T00:54:33.562Z,14.99
2022-09-10T00:55:35.841Z,15.01
2022-09-10T00:56:40.231Z,15.00
2022-09-10T00:57:43.953Z,14.97
2022-09-10T00:58:46.303Z,14.95
2022-09-10T00:59:55.090Z,14.95
2022-09-10T01:00:59.935Z,14.99
2022-09-10T01:02:02.964Z,15.01
2022-09-10T01:03:07.218Z,14.99
2022-09-10T01:04:11.163Z,15.00
2022-09-10T01:05:14.138Z,15.02
2022-09-10T01:06:16.629Z,15.04
2022-09-10T01:07:19.090Z,15.01
2022-09-10T01:08:21.812Z,14.99
2022-09-10T01:09:25.881Z,15.00
2022-09-10T01:10:31.613Z,14.98
2022-09-10T01:11:36.091Z,14.96
2022-09-10T01:12:42.799Z,14.96
2022-09-10T01:14:14.834Z,14.96
2022-09-10T01:15:25.378Z,14.96
2022-09-10T01:16:31.721Z,14.97
2022-09-10T01:17:44.800Z,14.95
2022-09-10T01:18:52.076Z,14.97
2022-09-10T01:20:09.151Z,14.96
2022-09-10T01:21:22.545Z,14.98
2022-09-10T01:22:43.183Z,14.97
2022-09-10T01:23:59.668Z,15.00
2022-09-10T01:25:06.533Z,14.97
2022-09-10T01:26:12.646Z,14.93
2022-09-10T01:27:32.530Z,14.95
2022-09-10T01:28:40.555Z,14.96
2022-09-10T01:30:08.452Z,14.93
2022-09-10T01:31:34.683Z,14.98
2022-09-10T01:32:48.502Z,14.98
2022-09-10T01:36:01.801Z,14.93
2022-09-10T01:37:07.617Z,14.90
2022-09-10T01:38:13.923Z,14.90
2022-09-10T01:39:16.892Z,14.89
2022-09-10T01:40:19.152Z,14.85
2022-09-10T01:41:23.139Z,14.85
2022-09-10T01:42:25.735Z,14.84
2022-09-10T01:43:27.805Z,14.82
2022-09-10T01:44:41.337Z,14.80
2022-09-10T01:45:52.553Z,14.77
2022-09-10T01:46:59.463Z,14.74
2022-09-10T01:48:12.044Z,14.76
2022-09-10T01:49:22.963Z,14.76
2022-09-10T01:50:43.322Z,14.76
2022-09-10T01:51:57.530Z,14.74
2022-09-10T01:52:58.946Z,14.74
2022-09-10T01:54:03.158Z,14.72
2022-09-10T01:55:04.669Z,14.69
2022-09-10T01:56:23.580Z,14.70
2022-09-10T01:57:25.831Z,14.70
2022-09-10T01:58:34.497Z,14.69
2022-09-10T01:59:41.372Z,14.67
2022-09-10T02:00:46.840Z,14.64
2022-09-10T02:01:51.740Z,14.64
2022-09-10T02:02:53.136Z,14.65
2022-09-10T02:03:59.646Z,14.64
2022-09-10T02:05:02.336Z,14.62
2022-09-10T02:06:05.886Z,14.63
2022-09-10T02:07:11.215Z,14.62
2022-09-10T02:08:16.580Z,14.63
2022-09-10T02:09:18.800Z,14.63
2022-09-10T02:10:20.795Z,14.66
2022-09-10T02:11:23.135Z,14.65
2022-09-10T02:12:25.788Z,14.64
2022-09-10T02:13:39.147Z,14.63
2022-09-10T02:14:59.154Z,14.64
2022-09-10T02:16:33.322Z,14.62
2022-09-10T02:17:36.331Z,14.62
2022-09-10T02:18:39.004Z,14.63
2022-09-10T02:19:41.041Z,14.63
2022-09-10T02:20:42.526Z,14.64
2022-09-10T02:21:44.075Z,14.63
2022-09-10T02:22:50.092Z,14.62
2022-09-10T02:23:55.180Z,14.62
2022-09-10T02:24:56.553Z,14.62
2022-09-10T02:25:58.351Z,14.63
2022-09-10T02:27:02.721Z,14.61
2022-09-10T02:28:05.484Z,14.62
2022-09-10T02:29:08.405Z,14.61
2022-09-10T02:30:10.553Z,14.62
2022-09-10T02:31:12.728Z,14.64
2022-09-10T02:32:14.223Z,14.64
2022-09-10T02:33:15.635Z,14.67
2022-09-10T02:34:17.028Z,14.69
2022-09-10T02:35:20.951Z,14.69
2022-09-10T02:36:24.008Z,14.69
2022-09-10T02:37:25.423Z,14.72
2022-09-10T02:38:27.074Z,14.72
2022-09-10T02:39:29.686Z,14.73
2022-09-10T02:40:31.527Z,14.73
2022-09-10T02:41:33.035Z,14.73
2022-09-10T02:42:35.465Z,14.73
2022-09-10T02:43:36.869Z,14.74
2022-09-10T02:44:38.352Z,14.73
2022-09-10T02:45:40.472Z,14.72
2022-09-10T02:46:41.957Z,14.69
2022-09-10T02:47:43.344Z,14.69
2022-09-10T02:48:44.724Z,14.68
2022-09-10T02:49:46.062Z,14.68
2022-09-10T02:50:47.522Z,14.71
2022-09-10T02:51:49.013Z,14.71
2022-09-10T02:52:50.344Z,14.69
2022-09-10T02:53:52.383Z,14.67
2022-09-10T02:54:54.687Z,14.74
2022-09-10T02:55:56.062Z,14.72
2022-09-10T02:56:57.478Z,14.72
2022-09-10T02:57:59.034Z,14.72
2022-09-10T02:59:00.571Z,14.74
2022-09-10T03:00:02.987Z,14.74
2022-09-10T03:01:08.190Z,14.71
2022-09-10T03:02:09.787Z,14.71
2022-09-10T03:03:12.555Z,14.72
2022-09-10T03:04:14.851Z,14.71
2022-09-10T03:05:16.659Z,14.70
2022-09-10T03:06:18.111Z,14.72
2022-09-10T03:07:19.484Z,14.72
2022-09-10T03:08:20.933Z,14.69
2022-09-10T03:09:22.916Z,14.71
2022-09-10T03:10:24.341Z,14.72
2022-09-10T03:11:25.700Z,14.72
2022-09-10T03:12:27.116Z,14.72
2022-09-10T03:13:29.215Z,14.71
2022-09-10T03:14:32.632Z,14.75
2022-09-10T03:15:35.190Z,14.72
2022-09-10T03:16:36.644Z,14.71
2022-09-10T03:17:40.756Z,14.72
2022-09-10T03:18:42.545Z,14.76
2022-09-10T03:19:44.452Z,14.74
2022-09-10T03:20:45.874Z,14.76
2022-09-10T03:21:47.203Z,14.74
2022-09-10T03:22:49.355Z,14.76
2022-09-10T03:23:51.990Z,14.76
2022-09-10T03:25:00.062Z,14.74
2022-09-10T03:26:01.452Z,14.72
2022-09-10T03:27:02.948Z,14.74
2022-09-10T03:28:04.323Z,14.74
2022-09-10T03:29:06.134Z,14.74
2022-09-10T03:30:12.855Z,14.71
2022-09-10T03:31:14.604Z,14.73
2022-09-10T03:32:19.593Z,14.74
2022-09-10T03:33:20.980Z,14.75
2022-09-10T03:34:22.348Z,14.75
2022-09-10T03:35:23.864Z,14.74
2022-09-10T03:36:25.592Z,14.75
2022-09-10T03:37:26.983Z,14.77
2022-09-10T03:38:28.462Z,14.75
2022-09-10T03:39:29.882Z,14.74
2022-09-10T03:40:31.330Z,14.74
2022-09-10T03:41:32.748Z,14.75
2022-09-10T03:42:34.955Z,14.75
2022-09-10T03:43:36.397Z,14.74
2022-09-10T03:44:41.760Z,14.73
2022-09-10T03:45:43.289Z,14.74
2022-09-10T03:46:45.343Z,14.75
2022-09-10T03:47:48.152Z,14.73
2022-09-10T03:48:54.652Z,14.73
2022-09-10T03:49:58.577Z,14.74
2022-09-10T03:51:00.170Z,14.76
2022-09-10T03:52:02.760Z,14.74
2022-09-10T03:53:06.639Z,14.75
2022-09-10T03:54:08.339Z,14.76
2022-09-10T03:55:09.787Z,14.79
2022-09-10T03:56:11.220Z,14.83
2022-09-10T03:57:13.704Z,14.80
2022-09-10T03:58:16.143Z,14.80
2022-09-10T03:59:17.582Z,14.82
2022-09-10T04:00:20.452Z,14.82
2022-09-10T04:01:23.414Z,14.82
2022-09-10T04:02:25.495Z,14.81
2022-09-10T04:03:26.914Z,14.85
2022-09-10T04:04:28.268Z,14.88
2022-09-10T04:05:29.673Z,14.89
2022-09-10T04:06:31.037Z,14.85
2022-09-10T04:07:32.483Z,14.83
2022-09-10T04:08:33.953Z,14.85
2022-09-10T04:09:35.424Z,14.84
2022-09-10T04:10:37.511Z,14.84
2022-09-10T04:11:38.895Z,14.85
2022-09-10T04:12:41.436Z,14.85
2022-09-10T04:13:42.908Z,14.83
2022-09-10T04:14:45.771Z,14.85
2022-09-10T04:15:49.254Z,14.87
2022-09-10T04:16:50.710Z,14.88
2022-09-10T04:17:53.270Z,14.89
2022-09-10T04:18:57.016Z,14.90
2022-09-10T04:19:58.384Z,14.90
2022-09-10T04:20:59.782Z,14.87
2022-09-10T04:22:01.249Z,14.89
2022-09-10T04:23:03.414Z,14.88
2022-09-10T04:24:06.832Z,14.89
2022-09-10T04:25:08.625Z,14.89
2022-09-10T04:26:12.557Z,14.88
2022-09-10T04:27:14.374Z,14.87
2022-09-10T04:28:15.809Z,14.83
2022-09-10T04:29:19.484Z,14.83
2022-09-10T04:30:21.027Z,14.84
2022-09-10T04:31:22.492Z,14.84
2022-09-10T04:32:26.376Z,14.81
2022-09-10T04:33:27.718Z,14.81
2022-09-10T04:34:29.380Z,14.81
2022-09-10T04:35:30.885Z,14.80
2022-09-10T04:36:33.657Z,14.77
2022-09-10T04:37:36.490Z,14.76
2022-09-10T04:38:38.456Z,14.78
2022-09-10T04:39:39.909Z,14.76
2022-09-10T04:40:41.278Z,14.77
2022-09-10T04:41:43.319Z,14.78
2022-09-10T04:42:44.876Z,14.82
2022-09-10T04:43:46.682Z,14.80
2022-09-10T04:44:51.007Z,14.79
2022-09-10T04:45:53.876Z,14.79
2022-09-10T04:46:55.934Z,14.77
2022-09-10T04:47:57.302Z,14.78
2022-09-10T04:48:59.160Z,14.80
2022-09-10T04:50:01.178Z,14.79
2022-09-10T04:51:18.377Z,14.78
2022-09-10T04:52:22.487Z,14.83
2022-09-10T04:53:25.002Z,14.82
2022-09-10T04:54:26.415Z,14.81
2022-09-10T04:55:30.112Z,14.84
2022-09-10T04:56:31.654Z,14.84
2022-09-10T04:57:33.499Z,14.83
2022-09-10T04:58:38.648Z,14.84
2022-09-10T04:59:40.801Z,14.83
2022-09-10T05:00:42.480Z,14.89
2022-09-10T05:01:43.899Z,14.87
2022-09-10T05:02:45.342Z,14.88
2022-09-10T05:03:47.042Z,14.87
2022-09-10T05:04:48.844Z,14.88
2022-09-10T05:05:50.245Z,14.85
2022-09-10T05:06:51.608Z,14.88
2022-09-10T05:43:58.464Z,15.00
2022-09-10T05:45:01.150Z,15.05
2022-09-10T05:46:03.507Z,15.07
2022-09-10T05:47:05.385Z,15.07
2022-09-10T05:48:07.048Z,15.05
2022-09-10T05:49:08.820Z,15.04
2022-09-10T05:50:10.902Z,15.05
2022-09-10T05:51:12.779Z,15.08
2022-09-10T05:52:17.385Z,15.07
2022-09-10T05:53:19.008Z,15.07
2022-09-10T05:54:20.335Z,15.05
2022-09-10T05:55:22.246Z,15.06
2022-09-10T05:56:23.907Z,15.06
2022-09-10T05:57:25.399Z,15.10
2022-09-10T05:58:26.828Z,15.10
2022-09-10T05:59:28.194Z,15.18
2022-09-10T06:00:29.740Z,15.20
2022-09-10T06:01:34.396Z,15.19
2022-09-10T06:02:38.709Z,15.19
2022-09-10T06:03:40.884Z,15.19
2022-09-10T06:04:42.219Z,15.19
2022-09-10T06:05:50.181Z,15.20
2022-09-10T06:06:53.006Z,15.19
2022-09-10T06:07:55.078Z,15.21
2022-09-10T06:08:56.492Z,15.19
2022-09-10T06:10:12.235Z,15.22
2022-09-10T06:11:16.887Z,15.22
2022-09-10T06:12:22.397Z,15.24
2022-09-10T06:13:24.210Z,15.25
2022-09-10T06:14:25.576Z,15.23
2022-09-10T06:15:27.979Z,15.24
2022-09-10T06:16:29.331Z,15.24
2022-09-10T06:17:31.259Z,15.25
2022-09-10T06:18:32.611Z,15.27
2022-09-10T06:19:35.422Z,15.28
2022-09-10T06:20:36.851Z,15.28
2022-09-10T06:21:39.840Z,15.31
2022-09-10T06:22:41.239Z,15.30
2022-09-10T06:23:43.922Z,15.30
2022-09-10T06:24:45.490Z,15.32
2022-09-10T06:25:46.881Z,15.33
2022-09-10T06:26:49.017Z,15.37
2022-09-10T06:27:50.946Z,15.39
2022-09-10T06:28:52.561Z,15.40
2022-09-10T06:29:53.949Z,15.41
2022-09-10T06:30:55.336Z,15.43
2022-09-10T06:31:56.808Z,15.46
2022-09-10T06:32:58.583Z,15.48
2022-09-10T06:34:01.810Z,15.52
2022-09-10T06:35:05.211Z,15.50
2022-09-10T06:36:06.772Z,15.53
2022-09-10T06:37:08.294Z,15.55
2022-09-10T06:38:12.204Z,15.54
2022-09-10T06:39:13.608Z,15.57
2022-09-10T06:40:23.173Z,15.58
2022-09-10T06:41:24.814Z,15.59
2022-09-10T06:42:40.441Z,15.61
2022-09-10T06:43:47.667Z,15.63
2022-09-10T06:45:03.113Z,15.69
2022-09-10T06:49:25.654Z,15.80
2022-09-10T06:50:27.171Z,15.82
2022-09-10T06:51:31.731Z,15.86
2022-09-10T06:52:33.095Z,15.86
2022-09-10T06:53:39.307Z,15.90
2022-09-10T06:54:40.728Z,15.94
2022-09-10T06:55:53.815Z,15.98
2022-09-10T06:56:55.675Z,16.03
2022-09-10T06:57:59.035Z,16.10
2022-09-10T06:59:02.613Z,16.18
2022-09-10T07:00:10.074Z,16.19
2022-09-10T07:01:14.530Z,16.29
2022-09-10T07:02:19.406Z,16.37
2022-09-10T07:03:21.418Z,16.41
2022-09-10T07:04:23.450Z,16.48
2022-09-10T07:05:24.914Z,16.50
2022-09-10T07:06:27.180Z,16.54
2022-09-10T07:07:34.253Z,16.61
2022-09-10T07:08:37.389Z,16.64
2022-09-10T07:09:38.778Z,16.63
2022-09-10T07:10:42.028Z,16.63
2022-09-10T07:11:43.549Z,16.65
2022-09-10T07:12:47.035Z,16.61
2022-09-10T07:13:49.965Z,16.61
2022-09-10T07:14:51.339Z,16.60
2022-09-10T07:15:54.223Z,16.59
2022-09-10T07:16:56.319Z,16.57
2022-09-10T07:17:59.841Z,16.54
2022-09-10T07:19:01.568Z,16.52
2022-09-10T07:20:13.504Z,16.53
2022-09-10T07:21:25.087Z,16.53
2022-09-10T07:22:26.886Z,16.53
2022-09-10T07:23:28.252Z,16.48
2022-09-10T07:24:29.880Z,16.47
2022-09-10T07:25:53.824Z,16.45
2022-09-10T07:27:09.676Z,16.49
2022-09-10T07:28:16.131Z,16.54
2022-09-10T07:29:20.314Z,16.57
2022-09-10T07:30:21.836Z,16.61
2022-09-10T07:31:31.441Z,16.68
2022-09-10T07:32:35.896Z,16.72
2022-09-10T07:33:46.126Z,16.77
2022-09-10T07:34:48.171Z,16.80
2022-09-10T07:35:50.515Z,16.83
2022-09-10T07:36:52.755Z,16.88
2022-09-10T07:37:55.579Z,16.89
2022-09-10T07:38:57.605Z,16.93
2022-09-10T07:39:59.560Z,16.99
2022-09-10T07:41:02.273Z,16.93
2022-09-10T07:42:03.734Z,16.92
2022-09-10T07:43:09.471Z,16.89
2022-09-10T07:44:11.215Z,16.85
2022-09-10T07:45:16.385Z,16.89
2022-09-10T07:46:19.753Z,16.89
2022-09-10T07:47:22.905Z,16.90
2022-09-10T07:48:24.321Z,16.92
2022-09-10T07:49:25.717Z,16.93
2022-09-10T07:50:27.136Z,16.92
2022-09-10T07:51:30.032Z,16.93
2022-09-10T07:52:37.160Z,16.94
2022-09-10T07:53:44.469Z,16.95
2022-09-10T07:54:52.116Z,16.88
2022-09-10T07:55:58.916Z,16.83
2022-09-10T07:57:01.357Z,16.83
2022-09-10T07:58:03.043Z,16.84
2022-09-10T07:59:05.792Z,16.88
2022-09-10T08:00:14.780Z,16.87
2022-09-10T08:01:25.402Z,16.94
2022-09-10T08:02:27.026Z,16.96
2022-09-10T08:03:34.460Z,16.98
2022-09-10T08:04:37.091Z,17.00
2022-09-10T08:05:41.769Z,17.03
2022-09-10T08:06:43.242Z,17.07
2022-09-10T08:07:45.016Z,17.14
2022-09-10T08:08:46.320Z,17.19
2022-09-10T08:09:48.844Z,17.26
2022-09-10T08:10:52.440Z,17.35
2022-09-10T08:11:54.025Z,17.38
2022-09-10T08:12:57.769Z,17.43
2022-09-10T08:13:59.228Z,17.48
2022-09-10T08:15:03.165Z,17.51
2022-09-10T08:16:08.713Z,17.53
2022-09-10T08:17:10.212Z,17.51
2022-09-10T08:18:15.913Z,17.57
2022-09-10T08:19:26.946Z,17.61
2022-09-10T08:20:28.387Z,17.66
2022-09-10T08:21:30.093Z,17.71
2022-09-10T08:22:33.374Z,17.75
2022-09-10T08:23:35.845Z,17.84
2022-09-10T08:24:37.248Z,17.92
2022-09-10T08:25:38.859Z,18.00
2022-09-10T08:26:40.224Z,18.09
2022-09-10T08:27:41.620Z,18.21
2022-09-10T08:28:43.427Z,18.35
2022-09-10T08:29:45.452Z,18.43
2022-09-10T08:31:00.178Z,18.49
2022-09-10T08:32:01.962Z,18.61
2022-09-10T08:33:05.993Z,18.72
2022-09-10T08:34:10.806Z,18.81
2022-09-10T08:35:14.391Z,18.93
2022-09-10T08:36:16.891Z,19.11
2022-09-10T08:37:18.458Z,19.14
2022-09-10T08:38:19.875Z,19.30
2022-09-10T08:39:21.491Z,19.28
2022-09-10T08:40:22.967Z,19.18
2022-09-10T08:41:30.949Z,19.09
2022-09-10T08:42:39.268Z,19.08
2022-09-10T08:43:46.844Z,19.12
2022-09-10T08:44:52.580Z,19.11
2022-09-10T08:45:58.645Z,19.15
2022-09-10T08:47:03.003Z,19.11
2022-09-10T08:48:15.270Z,19.13
2022-09-10T08:49:24.201Z,19.17
2022-09-10T08:50:39.871Z,19.08
2022-09-10T08:51:52.363Z,19.02
2022-09-10T08:53:12.471Z,18.98
2022-09-10T08:54:16.872Z,18.95
2022-09-10T08:55:18.237Z,18.88
2022-09-10T08:56:22.462Z,18.89
2022-09-10T08:57:33.306Z,18.95
2022-09-10T08:58:37.628Z,18.96
2022-09-10T08:59:42.519Z,18.91
2022-09-10T09:00:43.940Z,18.88
2022-09-10T09:01:54.316Z,18.82
2022-09-10T09:03:01.063Z,18.73
2022-09-10T09:04:06.419Z,18.76
2022-09-10T09:05:14.507Z,18.81
2022-09-10T09:06:29.842Z,18.89
2022-09-10T09:07:34.642Z,18.98
2022-09-10T09:08:39.210Z,18.99
2022-09-10T09:09:43.137Z,19.10
2022-09-10T09:10:53.764Z,19.13
2022-09-10T09:12:02.799Z,19.23
2022-09-10T09:13:22.077Z,19.27
2022-09-10T09:14:26.109Z,19.29
2022-09-10T09:15:52.053Z,19.37
2022-09-10T09:17:01.740Z,19.41
2022-09-10T09:18:05.844Z,19.48
2022-09-10T09:19:07.164Z,19.45
2022-09-10T09:20:12.259Z,19.53
2022-09-10T09:21:17.054Z,19.57
2022-09-10T09:22:19.866Z,19.54
2022-09-10T09:23:24.501Z,19.49
2022-09-10T09:24:45.462Z,19.43
2022-09-10T09:25:50.304Z,19.44
2022-09-10T09:26:57.017Z,19.47
2022-09-10T09:27:59.172Z,19.49
2022-09-10T09:29:13.981Z,19.54
2022-09-10T09:30:18.171Z,19.41
2022-09-10T09:31:25.938Z,19.44
2022-09-10T09:32:33.156Z,19.42
2022-09-10T09:33:35.258Z,19.48
2022-09-10T09:34:41.592Z,19.56
2022-09-10T09:35:52.805Z,19.64
2022-09-10T09:36:57.410Z,19.69
2022-09-10T09:38:00.243Z,19.79
2022-09-10T09:39:02.571Z,19.78
2022-09-10T09:40:07.537Z,19.79
2022-09-10T09:41:25.386Z,19.78
2022-09-10T09:42:46.060Z,19.79
2022-09-10T09:43:58.131Z,19.80
2022-09-10T09:45:10.374Z,19.82
2022-09-10T09:46:15.894Z,19.69
2022-09-10T09:47:20.264Z,19.41
2022-09-10T09:48:24.521Z,19.39
2022-09-10T09:49:27.957Z,19.38
2022-09-10T09:50:31.781Z,19.32
2022-09-10T09:51:33.208Z,19.37
2022-09-10T09:52:35.244Z,19.36
2022-09-10T09:53:36.791Z,19.33
2022-09-10T09:55:12.612Z,19.37
2022-09-10T09:56:05.087Z,19.41
2022-09-10T09:57:14.901Z,19.35
2022-09-10T09:58:22.586Z,19.32
2022-09-10T09:59:26.797Z,19.30
2022-09-10T10:00:32.785Z,19.20
2022-09-10T10:01:37.063Z,19.18
2022-09-10T10:02:38.493Z,19.21
2022-09-10T10:03:51.038Z,19.14
2022-09-10T10:05:06.108Z,19.11
2022-09-10T10:06:09.022Z,18.97
2022-09-10T10:07:10.648Z,18.95
2022-09-10T10:08:30.350Z,18.94
2022-09-10T10:09:33.359Z,18.91
2022-09-10T10:10:34.740Z,18.87
2022-09-10T10:11:42.303Z,18.78
2022-09-10T10:12:49.662Z,18.71
2022-09-10T10:13:51.190Z,18.51
2022-09-10T10:14:52.860Z,18.37
2022-09-10T10:15:54.414Z,18.30
2022-09-10T10:17:00.370Z,18.39
2022-09-10T10:18:22.159Z,18.48
2022-09-10T10:19:31.432Z,18.43
2022-09-10T10:20:36.252Z,18.39
2022-09-10T10:21:37.636Z,18.34
2022-09-10T10:22:40.109Z,18.45
2022-09-10T10:23:41.860Z,18.58
2022-09-10T10:24:44.105Z,18.61
2022-09-10T10:25:45.507Z,18.78
2022-09-10T10:26:47.722Z,18.87
2022-09-10T10:27:49.137Z,18.93
2022-09-10T10:28:51.972Z,18.97
2022-09-10T10:29:53.470Z,18.98
2022-09-10T10:30:56.476Z,19.11
2022-09-10T10:31:57.867Z,19.25
2022-09-10T10:32:59.934Z,19.32
2022-09-10T10:34:04.188Z,19.38
2022-09-10T10:35:05.646Z,19.41
2022-09-10T10:36:07.182Z,19.38
2022-09-10T10:37:26.943Z,19.44
2022-09-10T10:38:37.895Z,19.36
2022-09-10T10:39:45.373Z,19.34
2022-09-10T10:40:54.365Z,19.32
2022-09-10T10:41:55.733Z,19.25
2022-09-10T10:42:57.120Z,19.18
2022-09-10T10:44:01.371Z,19.17
2022-09-10T10:45:05.707Z,19.22
2022-09-10T10:46:30.410Z,19.19
2022-09-10T10:47:43.980Z,19.25
2022-09-10T10:49:12.616Z,19.26
2022-09-10T10:50:24.694Z,19.23
2022-09-10T10:51:26.032Z,19.30
2022-09-10T10:52:27.359Z,19.41
2022-09-10T10:53:31.891Z,19.36
2022-09-10T10:54:39.126Z,19.36
2022-09-10T10:56:02.669Z,19.45
2022-09-10T10:57:13.651Z,19.54
2022-09-10T10:58:33.414Z,19.53
2022-09-10T10:59:43.876Z,19.55
2022-09-10T11:01:03.771Z,19.58
2022-09-10T11:02:17.111Z,19.60
2022-09-10T11:03:32.091Z,19.65
2022-09-10T11:05:02.606Z,19.72
2022-09-10T11:06:07.658Z,19.92
2022-09-10T11:07:38.271Z,20.03
2022-09-10T11:08:45.980Z,20.20
2022-09-10T11:10:00.085Z,20.26
2022-09-10T11:11:18.638Z,20.41
2022-09-10T11:12:27.047Z,20.50
2022-09-10T11:13:37.159Z,20.64
2022-09-10T11:14:48.838Z,20.64
2022-09-10T11:15:54.756Z,20.59
2022-09-10T11:16:59.017Z,20.62
2022-09-10T11:22:30.611Z,20.92
2022-09-10T11:23:48.268Z,20.95
2022-09-10T11:43:47.283Z,21.03
2022-09-10T11:45:00.615Z,21.09
2022-09-10T11:46:03.787Z,21.21
2022-09-10T11:47:23.845Z,21.16
2022-09-10T11:48:36.097Z,21.23
2022-09-10T11:49:57.178Z,21.34
2022-09-10T11:51:02.704Z,21.25
2022-09-10T11:52:04.118Z,21.29
2022-09-10T11:53:05.607Z,21.26
2022-09-10T11:54:12.294Z,21.24
2022-09-10T11:55:15.004Z,21.31
2022-09-10T11:56:23.895Z,21.35
2022-09-10T11:57:33.313Z,21.41
2022-09-10T11:58:40.720Z,21.41
2022-09-10T12:00:00.888Z,21.47
2022-09-10T12:01:18.987Z,21.69
2022-09-10T12:02:43.290Z,21.84
2022-09-10T12:04:06.600Z,21.89
2022-09-10T12:05:19.682Z,22.05
2022-09-10T12:06:25.835Z,22.03
2022-09-10T12:07:47.566Z,22.02
2022-09-10T12:09:02.051Z,21.99
2022-09-10T12:10:12.276Z,21.91
2022-09-10T12:11:21.775Z,21.89
2022-09-10T12:12:29.055Z,21.97
2022-09-10T12:13:30.643Z,21.92
2022-09-10T12:14:32.141Z,21.93
2022-09-10T12:15:34.165Z,21.91
2022-09-10T12:16:42.850Z,21.89
2022-09-10T12:17:46.793Z,21.92
2022-09-10T12:18:50.167Z,21.84
2022-09-10T12:19:53.513Z,21.85
2022-09-10T12:20:57.550Z,21.87
2022-09-10T12:22:01.955Z,21.79
2022-09-10T12:23:03.619Z,21.56
2022-09-10T12:24:23.846Z,21.47
2022-09-10T12:25:30.482Z,21.49
2022-09-10T12:26:42.784Z,21.41
2022-09-10T12:27:44.229Z,21.36
2022-09-10T12:28:45.592Z,21.35
2022-09-10T12:29:46.994Z,21.29
2022-09-10T12:30:48.488Z,21.28
2022-09-10T12:32:12.568Z,21.17
2022-09-10T12:33:16.926Z,20.97
2022-09-10T12:34:19.168Z,20.90
2022-09-10T12:35:29.582Z,20.79
2022-09-10T12:36:30.940Z,20.64
2022-09-10T12:37:32.704Z,20.54
2022-09-10T12:38:42.930Z,20.51
2022-09-10T12:39:44.497Z,20.50
2022-09-10T12:40:46.467Z,20.53
2022-09-10T12:41:47.790Z,20.59
2022-09-10T12:42:49.431Z,20.68
2022-09-10T12:43:57.612Z,20.82
2022-09-10T12:44:59.253Z,21.00
2022-09-10T12:46:01.915Z,21.10
2022-09-10T12:47:11.994Z,21.23
2022-09-10T12:48:16.525Z,21.44
2022-09-10T12:49:17.971Z,21.59
2022-09-10T12:50:30.059Z,21.67
2022-09-10T12:51:50.110Z,21.81
2022-09-10T12:53:00.486Z,21.82
2022-09-10T12:54:09.569Z,21.83
2022-09-10T12:55:20.552Z,21.82
2022-09-10T12:56:35.183Z,21.76
2022-09-10T12:57:42.566Z,21.78
2022-09-10T12:58:52.021Z,21.66
2022-09-10T13:00:12.001Z,21.66
2022-09-10T13:01:24.177Z,21.72
2022-09-10T13:02:41.970Z,21.71
2022-09-10T13:03:49.284Z,21.68
2022-09-10T13:04:55.270Z,21.73
2022-09-10T13:05:59.070Z,21.76
2022-09-10T13:07:05.494Z,21.79
2022-09-10T13:08:06.821Z,21.90
2022-09-10T13:09:20.387Z,21.92
2022-09-10T13:10:28.531Z,21.94
2022-09-10T13:11:33.699Z,22.08
2022-09-10T13:12:36.241Z,21.91
2022-09-10T13:13:37.701Z,21.94
2022-09-10T13:14:40.628Z,21.95
2022-09-10T13:15:49.394Z,21.98
2022-09-10T13:16:50.772Z,21.98
2022-09-10T13:17:52.135Z,22.05
2022-09-10T13:19:11.965Z,21.99
2022-09-10T13:20:14.525Z,21.89
2022-09-10T13:21:25.074Z,21.78
2022-09-10T13:22:30.451Z,21.78
2022-09-10T13:23:43.903Z,21.82
2022-09-10T13:25:08.310Z,21.89
2022-09-10T13:26:28.276Z,21.97
2022-09-10T13:27:40.167Z,21.98
2022-09-10T13:28:41.526Z,21.99
2022-09-10T13:29:45.271Z,21.92
2022-09-10T13:30:49.987Z,21.92
2022-09-10T13:32:02.031Z,21.99
2022-09-10T13:33:07.640Z,22.06
2022-09-10T13:34:15.122Z,22.11
2022-09-10T13:35:28.238Z,22.02
2022-09-10T13:36:35.276Z,21.98
2022-09-10T13:37:46.455Z,21.96
2022-09-10T13:39:02.724Z,21.96
2022-09-10T13:40:24.250Z,21.93
2022-09-10T13:41:40.618Z,22.00
2022-09-10T13:42:59.179Z,21.98
2022-09-10T13:44:19.369Z,21.90
2022-09-10T13:45:20.767Z,21.90
2022-09-10T13:46:30.990Z,21.74
2022-09-10T13:47:39.977Z,21.69
2022-09-10T13:48:48.953Z,21.60
2022-09-10T13:49:50.294Z,21.55
2022-09-10T13:50:57.741Z,21.39
2022-09-10T13:52:01.266Z,21.30
2022-09-10T13:53:04.859Z,21.32
2022-09-10T13:54:08.878Z,21.21
2022-09-10T13:55:15.369Z,21.14
2022-09-10T13:56:21.252Z,21.13
2022-09-10T13:57:34.440Z,21.17
2022-09-10T13:58:36.678Z,21.15
2022-09-10T13:59:40.136Z,21.11
2022-09-10T14:00:48.672Z,21.07
2022-09-10T14:01:51.143Z,20.91
2022-09-10T14:02:52.615Z,20.82
2022-09-10T14:03:54.011Z,20.78
2022-09-10T14:04:55.375Z,20.71
2022-09-10T14:05:58.601Z,20.80
2022-09-10T14:07:06.175Z,20.90
2022-09-10T14:08:11.525Z,20.88
2022-09-10T14:09:12.904Z,20.87
2022-09-10T14:10:14.877Z,20.87
2022-09-10T14:11:19.383Z,20.95
2022-09-10T14:12:22.602Z,20.90
2022-09-10T14:13:36.747Z,20.86
2022-09-10T14:14:40.355Z,20.85
2022-09-10T14:15:41.799Z,20.88
2022-09-10T14:16:54.187Z,20.83
2022-09-10T14:17:57.670Z,20.73
2022-09-10T14:19:01.047Z,20.74
2022-09-10T14:20:04.274Z,20.78
2022-09-10T14:21:05.843Z,20.75
2022-09-10T14:22:10.095Z,20.81
2022-09-10T14:23:14.228Z,20.82
2022-09-10T14:24:35.842Z,20.71
2022-09-10T14:25:38.202Z,20.71
2022-09-10T14:26:39.784Z,20.71
2022-09-10T14:27:41.139Z,20.79
2022-09-10T14:28:49.229Z,20.84
2022-09-10T14:29:54.155Z,20.75
2022-09-10T14:31:14.241Z,20.75
2022-09-10T14:32:25.950Z,20.61
2022-09-10T14:33:34.727Z,20.58
2022-09-10T14:34:36.092Z,20.54
2022-09-10T14:35:45.359Z,20.37
2022-09-10T14:36:46.768Z,20.26
2022-09-10T14:37:48.203Z,20.11
2022-09-10T14:38:53.817Z,19.88
2022-09-10T14:39:55.310Z,19.57
2022-09-10T14:41:08.502Z,19.41
2022-09-10T14:42:22.712Z,19.28
2022-09-10T14:43:34.615Z,19.26
2022-09-10T14:44:42.416Z,19.24
2022-09-10T14:45:45.171Z,19.25
2022-09-10T14:47:18.992Z,19.28
2022-09-10T14:48:27.996Z,19.28
2022-09-10T14:49:31.205Z,19.31
2022-09-10T14:50:33.134Z,19.36
2022-09-10T14:51:34.504Z,19.44
2022-09-10T14:52:35.941Z,19.50
2022-09-10T14:53:37.862Z,19.47
2022-09-10T14:54:39.261Z,19.55
2022-09-10T14:55:40.639Z,19.68
2022-09-10T14:56:43.368Z,19.70
2022-09-10T14:57:44.683Z,19.75
2022-09-10T14:58:46.059Z,19.74
2022-09-10T14:59:47.409Z,19.81
2022-09-10T15:00:48.799Z,19.89
2022-09-10T15:01:50.547Z,19.88
2022-09-10T15:02:52.804Z,19.91
2022-09-10T15:03:54.337Z,19.88
2022-09-10T15:04:55.767Z,19.86
2022-09-10T15:05:57.138Z,19.85
2022-09-10T15:06:59.901Z,19.86
2022-09-10T15:08:01.285Z,19.93